createdAt,value
2022-10-11T00:00:59.263Z,6.50
2022-10-11T00:03:35.388Z,7.70
2022-10-11T00:06:06.037Z,7.50
2022-10-11T00:08:35.219Z,7.20
2022-10-11T00:11:06.863Z,7.50
2022-10-11T00:13:35.432Z,7.80
2022-10-11T00:16:11.381Z,6.80
2022-10-11T00:18:39.872Z,7.60
2022-10-11T00:21:13.902Z,7.20
2022-10-11T00:23:42.775Z,7.70
2022-10-11T00:26:11.715Z,8.70
2022-10-11T00:28:41.186Z,7.90
2022-10-11T00:31:11.874Z,7.20
2022-10-11T00:33:39.900Z,7.70
2022-10-11T00:36:09.267Z,7.80
2022-10-11T00:38:37.746Z,7.80
2022-10-11T00:41:05.918Z,8.60
2022-10-11T00:43:34.396Z,8.00
2022-10-11T00:46:05.451Z,8.10
2022-10-11T00:48:40.173Z,7.90
2022-10-11T00:51:26.564Z,8.40
2022-10-11T00:53:54.944Z,9.40
2022-10-11T00:56:36.736Z,8.30
2022-10-11T00:59:10.815Z,8.20
2022-10-11T01:01:38.886Z,9.20
2022-10-11T01:04:06.998Z,8.50
2022-10-11T01:06:35.705Z,9.40
2022-10-11T01:09:04.404Z,9.10
2022-10-11T01:11:34.401Z,8.80
2022-10-11T01:14:11.557Z,9.60
2022-10-11T01:16:42.399Z,10.30
2022-10-11T01:19:32.182Z,8.80
2022-10-11T01:22:27.685Z,9.00
2022-10-11T01:25:21.662Z,10.10
2022-10-11T01:28:13.545Z,9.20
2022-10-11T01:30:42.993Z,9.50
2022-10-11T01:33:20.750Z,10.00
2022-10-11T01:35:57.773Z,10.00
2022-10-11T01:39:05.272Z,10.10
2022-10-11T01:41:42.898Z,10.20
2022-10-11T01:44:13.498Z,10.00
2022-10-11T01:46:42.036Z,10.30
2022-10-11T01:49:10.453Z,10.60
2022-10-11T01:51:45.225Z,10.00
2022-10-11T01:54:56.524Z,10.50
2022-10-11T01:57:41.262Z,10.70
2022-10-11T02:00:32.539Z,10.60
2022-10-11T02:03:24.162Z,13.10
2022-10-11T02:06:01.771Z,10.50
2022-10-11T02:08:44.982Z,11.20
2022-10-11T02:11:25.444Z,10.50
2022-10-11T02:14:15.208Z,12.20
2022-10-11T02:16:47.423Z,15.00
2022-10-11T02:19:19.246Z,13.60
2022-10-11T02:21:53.770Z,12.30
2022-10-11T02:24:27.778Z,12.00
2022-10-11T02:26:59.536Z,12.20
2022-10-11T02:29:30.787Z,13.40
2022-10-11T02:32:00.752Z,11.90
2022-10-11T02:34:44.645Z,11.50
2022-10-11T02:37:23.153Z,12.10
2022-10-11T02:40:20.160Z,12.40
2022-10-11T02:43:25.138Z,12.00
2022-10-11T02:46:00.375Z,12.60
2022-10-11T02:48:29.542Z,12.10
2022-10-11T02:50:58.285Z,13.90
2022-10-11T02:53:27.311Z,12.30
2022-10-11T02:55:55.987Z,12.60
2022-10-11T02:58:24.700Z,12.00
2022-10-11T03:00:52.586Z,13.10
2022-10-11T03:03:20.530Z,12.50
2022-10-11T03:05:48.572Z,12.90
2022-10-11T03:08:17.931Z,12.10
2022-10-11T03:10:45.893Z,12.50
2022-10-11T03:13:17.869Z,12.90
2022-10-11T03:16:02.801Z,13.00
2022-10-11T03:18:31.819Z,13.70
2022-10-11T03:21:00.107Z,12.30
2022-10-11T03:23:28.440Z,14.90
2022-10-11T03:25:56.434Z,12.80
2022-10-11T03:28:24.434Z,12.30
2022-10-11T03:30:52.889Z,13.60
2022-10-11T03:33:20.856Z,12.60
2022-10-11T03:35:49.949Z,12.60
2022-10-11T03:38:21.093Z,12.60
2022-10-11T03:40:49.263Z,12.80
2022-10-11T03:43:17.538Z,14.30
2022-10-11T03:45:45.445Z,13.50
2022-10-11T03:48:13.413Z,13.90
2022-10-11T03:50:41.343Z,13.40
2022-10-11T03:53:09.636Z,13.90
2022-10-11T03:55:41.682Z,14.20
2022-10-11T03:58:09.961Z,13.30
2022-10-11T04:00:38.235Z,14.30
2022-10-11T04:03:06.301Z,13.80
2022-10-11T04:05:34.269Z,13.20
2022-10-11T04:08:02.627Z,14.40
2022-10-11T04:10:31.742Z,14.10
2022-10-11T04:12:59.644Z,14.70
2022-10-11T04:15:27.573Z,14.20
2022-10-11T04:17:55.419Z,14.50
2022-10-11T04:20:23.613Z,14.00
2022-10-11T04:22:51.491Z,14.50
2022-10-11T04:25:19.551Z,14.60
2022-10-11T04:27:47.723Z,20.50
2022-10-11T04:30:16.476Z,26.90
2022-10-11T04:32:45.352Z,18.40
2022-10-11T04:35:13.367Z,15.30
2022-10-11T04:37:41.273Z,17.70
2022-10-11T04:40:10.351Z,17.00
2022-10-11T04:42:38.502Z,15.60
2022-10-11T04:45:07.290Z,16.50
2022-10-11T04:47:35.260Z,15.60
2022-10-11T04:50:04.105Z,15.30
2022-10-11T04:52:32.116Z,15.50
2022-10-11T04:55:00.199Z,15.60
2022-10-11T04:57:28.158Z,17.60
2022-10-11T04:59:56.123Z,16.60
2022-10-11T05:02:24.026Z,16.90
2022-10-11T05:04:52.057Z,15.80
2022-10-11T05:07:19.932Z,16.90
2022-10-11T05:09:48.001Z,18.00
2022-10-11T05:12:16.936Z,26.20
2022-10-11T05:14:45.087Z,25.70
2022-10-11T05:17:13.127Z,25.30
2022-10-11T05:19:41.093Z,25.20
2022-10-11T05:22:09.315Z,24.60
2022-10-11T05:24:37.864Z,25.30
2022-10-11T05:27:05.829Z,25.60
2022-10-11T05:29:34.300Z,24.00
2022-10-11T05:32:02.268Z,23.40
2022-10-11T05:34:30.439Z,26.30
2022-10-11T05:36:58.366Z,25.30
2022-10-11T05:39:26.377Z,23.80
2022-10-11T05:41:54.274Z,22.90
2022-10-11T05:44:23.134Z,24.50
2022-10-11T05:46:51.102Z,25.60
2022-10-11T05:49:18.967Z,24.00
2022-10-11T05:51:47.138Z,22.00
2022-10-11T05:54:15.315Z,21.80
2022-10-11T05:56:43.284Z,22.30
2022-10-11T05:59:11.250Z,22.00
2022-10-11T06:01:39.414Z,20.30
2022-10-11T06:04:08.516Z,20.30
2022-10-11T06:06:36.482Z,20.00
2022-10-11T06:09:04.453Z,20.90
2022-10-11T06:11:32.459Z,21.90
2022-10-11T06:14:00.514Z,18.70
2022-10-11T06:16:28.467Z,20.50
2022-10-11T06:18:57.712Z,19.20
2022-10-11T06:21:25.726Z,19.20
2022-10-11T06:23:59.936Z,19.70
2022-10-11T06:26:30.168Z,19.60
2022-10-11T06:28:58.972Z,21.40
2022-10-11T06:31:27.388Z,24.80
2022-10-11T06:33:55.410Z,23.90
2022-10-11T06:36:23.364Z,23.30
2022-10-11T06:38:52.629Z,22.40
2022-10-11T06:41:23.400Z,24.70
2022-10-11T06:43:51.983Z,20.00
2022-10-11T06:46:22.667Z,19.30
2022-10-11T06:48:51.360Z,19.10
2022-10-11T06:51:21.321Z,18.50
2022-10-11T06:53:52.963Z,18.80
2022-10-11T06:56:21.407Z,18.80
2022-10-11T06:58:51.284Z,18.00
2022-10-11T07:01:21.670Z,16.00
2022-10-11T07:03:51.804Z,16.50
2022-10-11T07:06:23.050Z,17.20
2022-10-11T07:08:51.324Z,15.70
2022-10-11T07:11:27.584Z,14.70
2022-10-11T07:14:02.307Z,12.80
2022-10-11T07:16:30.814Z,12.30
2022-10-11T07:19:01.209Z,11.00
2022-10-11T07:21:31.956Z,9.50
2022-10-11T07:24:00.765Z,7.60
2022-10-11T07:26:33.821Z,9.00
2022-10-11T07:29:02.260Z,8.60
2022-10-11T07:31:31.057Z,7.50
2022-10-11T07:33:59.126Z,6.80
2022-10-11T07:36:27.141Z,7.10
2022-10-11T07:38:55.196Z,6.80
2022-10-11T07:41:23.168Z,5.60
2022-10-11T07:43:51.312Z,5.90
2022-10-11T07:46:19.414Z,6.40
2022-10-11T07:48:50.192Z,6.90
2022-10-11T07:51:21.148Z,7.30
2022-10-11T07:53:54.787Z,5.60
2022-10-11T07:56:28.244Z,8.80
2022-10-11T07:58:58.808Z,5.60
2022-10-11T08:01:27.955Z,7.40
2022-10-11T08:03:57.440Z,7.60
2022-10-11T08:06:29.572Z,7.00
2022-10-11T08:09:01.097Z,9.00
2022-10-11T08:11:32.714Z,6.90
2022-10-11T08:14:02.679Z,7.30
2022-10-11T08:16:30.744Z,6.30
2022-10-11T08:18:58.839Z,6.30
2022-10-11T08:21:27.057Z,7.80
2022-10-11T08:23:55.155Z,8.60
2022-10-11T08:26:23.456Z,9.40
2022-10-11T08:28:51.599Z,9.90
2022-10-11T08:31:20.113Z,7.70
2022-10-11T08:33:48.077Z,9.00
2022-10-11T08:36:16.054Z,12.80
2022-10-11T08:38:44.015Z,11.00
2022-10-11T08:41:27.240Z,10.70
2022-10-11T08:44:00.941Z,10.40
2022-10-11T08:46:33.163Z,11.30
2022-10-11T08:49:02.920Z,9.10
2022-10-11T08:51:47.477Z,7.40
2022-10-11T08:54:32.341Z,8.60
2022-10-11T08:57:02.831Z,8.40
2022-10-11T08:59:41.387Z,8.20
2022-10-11T09:03:06.815Z,10.10
2022-10-11T09:05:37.631Z,10.00
2022-10-11T09:08:21.779Z,8.90
2022-10-11T09:10:58.861Z,10.30
2022-10-11T09:14:04.716Z,7.90
2022-10-11T09:17:08.218Z,9.40
2022-10-11T09:20:13.339Z,7.50
2022-10-11T09:23:04.468Z,7.10
2022-10-11T09:25:37.864Z,7.40
2022-10-11T09:28:12.133Z,7.00
2022-10-11T09:30:47.650Z,9.00
2022-10-11T09:33:19.954Z,7.60
2022-10-11T09:35:51.142Z,8.40
2022-10-11T09:38:24.666Z,6.40
2022-10-11T09:41:11.854Z,10.50
2022-10-11T09:43:40.040Z,9.00
2022-10-11T09:46:53.563Z,9.50
2022-10-11T09:49:25.576Z,8.80
2022-10-11T09:51:56.475Z,6.80
2022-10-11T09:54:42.761Z,6.00
2022-10-11T09:57:33.973Z,8.50
2022-10-11T10:00:05.326Z,8.80
2022-10-11T10:02:44.966Z,10.70
2022-10-11T10:05:15.609Z,7.00
2022-10-11T10:08:11.644Z,9.20
2022-10-11T10:10:57.069Z,9.20
2022-10-11T10:13:51.385Z,10.70
2022-10-11T10:16:26.107Z,7.40
2022-10-11T10:19:04.417Z,9.50
2022-10-11T10:21:45.775Z,8.00
2022-10-11T10:24:41.008Z,9.40
2022-10-11T10:27:08.976Z,8.40
2022-10-11T10:29:38.237Z,8.40
2022-10-11T10:32:15.000Z,7.20
2022-10-11T10:35:06.474Z,8.90
2022-10-11T10:37:53.034Z,8.50
2022-10-11T10:40:58.418Z,8.70
2022-10-11T10:43:32.302Z,5.30
2022-10-11T10:46:12.174Z,8.30
2022-10-11T10:49:23.261Z,9.10
2022-10-11T10:52:03.300Z,6.50
2022-10-11T10:54:39.663Z,7.70
2022-10-11T10:57:41.120Z,9.80
2022-10-11T11:00:21.784Z,9.90
2022-10-11T11:03:05.791Z,7.30
2022-10-11T11:05:51.416Z,8.60
2022-10-11T11:08:37.714Z,7.20
2022-10-11T11:11:24.412Z,7.40
2022-10-11T11:14:18.904Z,6.30
2022-10-11T11:17:07.761Z,8.10
2022-10-11T11:19:53.957Z,9.00
2022-10-11T11:22:36.976Z,6.80
2022-10-11T11:25:23.993Z,7.20
2022-10-11T11:28:15.224Z,6.60
2022-10-11T11:30:58.230Z,6.00
2022-10-11T11:33:35.208Z,5.70
2022-10-11T11:36:11.366Z,7.30
2022-10-11T11:39:07.193Z,7.00
2022-10-11T11:41:47.133Z,7.90
2022-10-11T11:44:48.588Z,7.90
2022-10-11T11:47:25.469Z,6.20
2022-10-11T11:49:59.410Z,11.00
2022-10-11T11:52:33.904Z,7.40
2022-10-11T11:55:33.607Z,7.20
2022-10-11T11:58:35.777Z,8.80
2022-10-11T12:01:31.394Z,6.10
2022-10-11T12:04:09.497Z,7.00
2022-10-11T12:06:52.486Z,8.70
2022-10-11T12:09:27.291Z,7.10
2022-10-11T12:12:34.022Z,8.80
2022-10-11T12:15:18.682Z,7.90
2022-10-11T12:18:04.161Z,9.90
2022-10-11T12:20:38.169Z,7.40
2022-10-11T12:23:29.042Z,8.90
2022-10-11T12:26:32.168Z,8.80
2022-10-11T12:29:05.427Z,9.20
2022-10-11T12:31:35.965Z,8.80
2022-10-11T12:34:37.227Z,8.40
2022-10-11T12:37:31.726Z,7.80
2022-10-11T12:40:00.469Z,7.60
2022-10-11T12:42:36.482Z,8.90
2022-10-11T12:45:13.454Z,7.70
2022-10-11T12:47:44.178Z,9.80
2022-10-11T12:50:26.085Z,9.90
2022-10-11T12:54:02.288Z,9.80
2022-10-11T12:56:57.756Z,9.00
2022-10-11T12:59:26.543Z,8.10
2022-10-11T13:01:58.204Z,9.50
2022-10-11T13:04:29.437Z,7.40
2022-10-11T13:07:06.813Z,10.70
2022-10-11T13:09:39.509Z,7.70
2022-10-11T13:12:13.623Z,9.20
2022-10-11T13:15:07.703Z,9.80
2022-10-11T13:17:39.356Z,9.00
2022-10-11T13:20:16.446Z,9.90
2022-10-11T13:22:48.194Z,10.50
2022-10-11T13:25:23.515Z,10.40
2022-10-11T13:27:53.652Z,9.50
2022-10-11T13:30:28.275Z,9.70
2022-10-11T13:32:57.090Z,11.20
2022-10-11T13:35:34.764Z,12.10
2022-10-11T13:38:07.542Z,7.30
2022-10-11T13:40:35.932Z,8.30
2022-10-11T13:43:06.010Z,8.50
2022-10-11T13:45:37.661Z,6.70
2022-10-11T13:48:16.516Z,6.10
2022-10-11T13:50:52.262Z,6.00
2022-10-11T13:53:25.557Z,9.00
2022-10-11T13:56:06.373Z,6.30
2022-10-11T13:58:46.455Z,7.00
2022-10-11T14:01:24.971Z,7.50
2022-10-11T14:04:11.274Z,9.70
2022-10-11T14:07:01.043Z,7.40
2022-10-11T14:09:39.719Z,7.40
2022-10-11T14:12:26.297Z,6.50
2022-10-11T14:14:54.685Z,8.10
2022-10-11T14:17:42.714Z,7.70
2022-10-11T14:20:20.507Z,8.70
2022-10-11T14:22:52.759Z,9.70
2022-10-11T14:25:21.929Z,8.20
2022-10-11T14:27:50.201Z,9.40
2022-10-11T14:30:25.771Z,10.60
2022-10-11T14:32:57.147Z,9.80
2022-10-11T14:35:32.078Z,8.90
2022-10-11T14:38:00.350Z,10.60
2022-10-11T14:40:30.881Z,9.30
2022-10-11T14:42:59.021Z,8.00
2022-10-11T14:45:28.082Z,9.40
2022-10-11T14:47:56.729Z,9.40
2022-10-11T14:50:30.790Z,8.10
2022-10-11T14:52:59.019Z,9.50
2022-10-11T14:55:27.369Z,6.50
2022-10-11T14:57:56.416Z,9.10
2022-10-11T15:00:28.065Z,8.30
2022-10-11T15:02:56.661Z,6.70
2022-10-11T15:05:32.680Z,8.40
2022-10-11T15:08:03.206Z,9.20
2022-10-11T15:10:36.295Z,7.10
2022-10-11T15:13:05.318Z,8.60
2022-10-11T15:15:36.949Z,9.00
2022-10-11T15:18:06.825Z,9.30
2022-10-11T15:20:38.611Z,8.50
2022-10-11T15:23:09.913Z,7.60
2022-10-11T15:25:40.080Z,7.20
2022-10-11T15:28:14.821Z,8.20
2022-10-11T15:30:43.285Z,7.00
2022-10-11T15:33:11.707Z,6.50
2022-10-11T15:35:45.984Z,7.10
2022-10-11T15:38:24.190Z,8.00
2022-10-11T15:40:52.945Z,7.40
2022-10-11T15:43:24.795Z,6.70
2022-10-11T15:45:58.024Z,9.20
2022-10-11T15:48:27.721Z,6.60
2022-10-11T15:50:55.830Z,8.30
2022-10-11T15:53:31.157Z,6.10
2022-10-11T15:56:02.575Z,6.50
2022-10-11T15:58:36.579Z,8.90
2022-10-11T16:01:08.415Z,9.10
2022-10-11T16:03:36.859Z,8.90
2022-10-11T16:06:05.835Z,9.70
2022-10-11T16:08:34.571Z,7.60
2022-10-11T16:11:04.329Z,8.30
2022-10-11T16:13:32.708Z,8.80
2022-10-11T16:16:02.630Z,8.50
2022-10-11T16:18:35.332Z,7.80
2022-10-11T16:21:10.139Z,8.60
2022-10-11T16:23:39.022Z,10.00
2022-10-11T16:26:13.495Z,9.60
2022-10-11T16:28:42.206Z,9.60
2022-10-11T16:31:14.297Z,9.70
2022-10-11T16:33:48.383Z,12.50
2022-10-11T16:36:32.662Z,14.70
2022-10-11T16:39:02.563Z,13.00
2022-10-11T16:41:30.562Z,12.30
2022-10-11T16:43:58.641Z,11.80
2022-10-11T16:46:26.889Z,11.40
2022-10-11T16:48:56.594Z,11.10
2022-10-11T16:51:25.071Z,9.70
2022-10-11T16:53:53.537Z,10.60
2022-10-11T16:56:24.325Z,11.80
2022-10-11T16:58:53.425Z,10.90
2022-10-11T17:01:22.089Z,8.80
2022-10-11T17:03:51.106Z,8.60
2022-10-11T17:06:20.150Z,8.00
2022-10-11T17:08:48.189Z,7.70
2022-10-11T17:11:21.989Z,8.70
2022-10-11T17:13:53.541Z,9.80
2022-10-11T17:16:22.891Z,10.90
2022-10-11T17:18:51.413Z,11.40
2022-10-11T17:21:23.416Z,13.90
2022-10-11T17:23:51.796Z,11.50
2022-10-11T17:26:26.403Z,12.80
2022-10-11T17:28:56.982Z,13.20
2022-10-11T17:31:26.270Z,13.60
2022-10-11T17:33:55.319Z,13.30
2022-10-11T17:36:27.934Z,16.20
2022-10-11T17:38:55.992Z,17.90
2022-10-11T17:41:28.155Z,18.00
2022-10-11T17:43:59.724Z,18.40
2022-10-11T17:46:32.380Z,17.20
2022-10-11T17:49:02.092Z,17.50
2022-10-11T17:51:30.060Z,22.00
2022-10-11T17:53:58.032Z,16.90
2022-10-11T17:56:30.434Z,17.20
2022-10-11T17:59:00.555Z,15.30
2022-10-11T18:01:29.613Z,14.40
2022-10-11T18:04:03.422Z,13.80
2022-10-11T18:06:33.643Z,15.40
2022-10-11T18:09:03.046Z,12.50
2022-10-11T18:11:31.626Z,13.80
2022-10-11T18:13:59.891Z,13.20
2022-10-11T18:16:30.426Z,12.80
2022-10-11T18:18:59.125Z,12.20
2022-10-11T18:21:33.995Z,12.30
2022-10-11T18:24:15.142Z,14.80
2022-10-11T18:26:45.136Z,14.30
2022-10-11T18:29:15.325Z,13.70
2022-10-11T18:31:43.734Z,14.60
2022-10-11T18:34:13.231Z,15.70
2022-10-11T18:36:41.522Z,14.70
2022-10-11T18:39:14.533Z,16.10
2022-10-11T18:41:44.722Z,16.80
2022-10-11T18:44:15.331Z,17.30
2022-10-11T18:46:44.467Z,20.60
2022-10-11T18:49:13.651Z,24.50
2022-10-11T18:51:43.048Z,62.50
2022-10-11T18:54:15.404Z,81.60
2022-10-11T18:56:46.372Z,70.30
2022-10-11T18:59:14.429Z,65.80
2022-10-11T19:01:44.776Z,67.90
2022-10-11T19:04:16.155Z,57.10
2022-10-11T19:06:49.663Z,58.80
2022-10-11T19:09:24.734Z,63.00
2022-10-11T19:11:55.671Z,59.80
2022-10-11T19:14:26.743Z,63.80
2022-10-11T19:16:56.414Z,62.20
2022-10-11T19:19:27.966Z,67.40
2022-10-11T19:21:55.937Z,62.90
2022-10-11T19:24:27.241Z,78.00
2022-10-11T19:26:59.851Z,65.80
2022-10-11T19:29:31.104Z,51.80
2022-10-11T19:32:01.443Z,57.50
2022-10-11T19:34:31.735Z,52.30
2022-10-11T19:37:01.388Z,51.90
2022-10-11T19:39:29.806Z,46.80
2022-10-11T19:41:58.019Z,32.00
2022-10-11T19:44:26.291Z,34.60
2022-10-11T19:46:54.263Z,34.30
2022-10-11T19:49:25.294Z,35.10
2022-10-11T19:51:55.613Z,36.40
2022-10-11T19:54:23.899Z,35.60
2022-10-11T19:56:52.775Z,34.50
2022-10-11T19:59:20.751Z,32.50
2022-10-11T20:01:52.735Z,35.30
2022-10-11T20:04:50.498Z,37.60
2022-10-11T20:07:10.576Z,28.80
2022-10-11T20:09:38.636Z,35.50
2022-10-11T20:12:07.779Z,30.10
2022-10-11T20:14:35.800Z,25.30
2022-10-11T20:17:03.876Z,24.40
2022-10-11T20:19:32.056Z,24.50
2022-10-11T20:22:01.068Z,25.40
2022-10-11T20:24:33.666Z,31.10
2022-10-11T20:27:06.026Z,24.90
2022-10-11T20:29:34.563Z,25.80
2022-10-11T20:32:02.637Z,28.10
2022-10-11T20:34:31.181Z,28.00
2022-10-11T20:36:59.492Z,29.80
2022-10-11T20:39:27.435Z,28.00
2022-10-11T20:41:55.536Z,26.90
2022-10-11T20:44:23.713Z,27.00
2022-10-11T20:46:51.877Z,24.90
2022-10-11T20:49:20.202Z,23.70
2022-10-11T20:51:48.917Z,24.70
2022-10-11T20:54:17.639Z,21.00
2022-10-11T20:56:46.309Z,20.30
2022-10-11T20:59:14.401Z,22.50
2022-10-11T21:01:42.722Z,20.30
2022-10-11T21:04:18.840Z,19.10
2022-10-11T21:06:48.284Z,16.30
2022-10-11T21:09:17.291Z,19.90
2022-10-11T21:11:45.694Z,20.80
2022-10-11T21:14:14.409Z,18.20
2022-10-11T21:16:42.546Z,20.20
2022-10-11T21:19:13.151Z,20.80
2022-10-11T21:21:41.510Z,20.30
2022-10-11T21:24:10.259Z,19.90
2022-10-11T21:26:38.182Z,19.20
2022-10-11T21:29:06.492Z,18.80
2022-10-11T21:31:34.728Z,19.60
2022-10-11T21:34:05.298Z,21.80
2022-10-11T21:36:33.888Z,19.60
2022-10-11T21:39:01.941Z,20.20
2022-10-11T21:41:34.182Z,22.50
2022-10-11T21:44:02.290Z,21.20
2022-10-11T21:49:20.234Z,18.40
2022-10-11T21:51:48.711Z,16.80
2022-10-11T21:54:17.164Z,18.80
2022-10-11T21:56:45.036Z,17.00
2022-10-11T21:59:13.592Z,17.60
2022-10-11T22:01:43.449Z,18.00
2022-10-11T22:04:12.458Z,16.20
2022-10-11T22:06:40.722Z,15.70
2022-10-11T22:09:09.117Z,17.10
2022-10-11T22:11:37.949Z,15.00
2022-10-11T22:14:06.088Z,16.30
2022-10-11T22:16:35.182Z,16.60
2022-10-11T22:19:03.738Z,14.70
2022-10-11T22:21:31.807Z,14.80
2022-10-11T22:23:59.876Z,16.00
2022-10-11T22:26:31.051Z,19.20
2022-10-11T22:29:00.430Z,17.10
2022-10-11T22:31:29.496Z,17.10
2022-10-11T22:33:59.409Z,18.70
2022-10-11T22:36:30.649Z,16.90
2022-10-11T22:38:59.181Z,17.40
2022-10-11T22:41:27.229Z,14.40
2022-10-11T22:43:55.202Z,18.10
2022-10-11T22:46:23.122Z,15.70
2022-10-11T22:48:50.992Z,13.30
2022-10-11T22:51:19.783Z,14.30
2022-10-11T22:53:47.749Z,13.90
2022-10-11T22:56:15.754Z,15.20
2022-10-11T22:58:43.723Z,15.50
2022-10-11T23:01:16.043Z,14.30
2022-10-11T23:03:47.243Z,15.10
2022-10-11T23:06:15.200Z,11.80
2022-10-11T23:08:44.507Z,14.60
2022-10-11T23:11:12.888Z,15.70
2022-10-11T23:13:40.849Z,15.40
2022-10-11T23:16:11.235Z,14.00
2022-10-11T23:18:39.546Z,13.70
2022-10-11T23:21:08.353Z,12.20
2022-10-11T23:23:36.305Z,16.70
2022-10-11T23:26:16.324Z,13.80
2022-10-11T23:28:44.870Z,21.40
2022-10-11T23:31:18.142Z,19.50
2022-10-11T23:33:47.018Z,20.70
2022-10-11T23:36:24.177Z,19.40
2022-10-11T23:38:54.630Z,17.90
2022-10-11T23:41:27.987Z,22.60
2022-10-11T23:43:56.365Z,20.40
2022-10-11T23:46:25.720Z,20.40
2022-10-11T23:48:53.669Z,18.60
2022-10-11T23:51:21.636Z,17.80
2022-10-11T23:53:49.501Z,16.10
2022-10-11T23:56:17.680Z,17.50
2022-10-11T23:58:45.956Z,19.10
